createdAt,value
2022-11-29T00:01:27.635Z,24.23
2022-11-29T00:04:00.373Z,23.40
2022-11-29T00:06:35.473Z,24.23
2022-11-29T00:09:11.423Z,22.70
2022-11-29T00:11:58.067Z,25.90
2022-11-29T00:14:30.908Z,23.73
2022-11-29T00:17:04.426Z,24.40
2022-11-29T00:19:37.692Z,22.40
2022-11-29T00:22:12.223Z,24.27
2022-11-29T00:24:47.758Z,23.93
2022-11-29T00:27:21.668Z,24.10
2022-11-29T00:29:54.598Z,24.23
2022-11-29T00:32:27.867Z,23.07
2022-11-29T00:35:05.201Z,25.50
2022-11-29T00:37:42.702Z,23.57
2022-11-29T00:40:15.982Z,24.80
2022-11-29T00:42:48.985Z,23.33
2022-11-29T00:45:22.503Z,23.13
2022-11-29T00:47:56.135Z,23.47
2022-11-29T00:50:28.979Z,24.37
2022-11-29T00:53:03.704Z,24.87
2022-11-29T00:55:36.491Z,22.20
2022-11-29T00:58:09.958Z,22.87
2022-11-29T01:00:44.572Z,24.93
2022-11-29T01:03:18.105Z,23.77
2022-11-29T01:05:51.904Z,24.73
2022-11-29T01:08:27.023Z,23.97
2022-11-29T01:11:04.504Z,24.03
2022-11-29T01:13:38.484Z,25.03
2022-11-29T01:16:11.955Z,23.40
2022-11-29T01:18:44.975Z,24.57
2022-11-29T01:21:18.781Z,22.47
2022-11-29T01:23:54.026Z,23.47
2022-11-29T01:26:28.472Z,24.27
2022-11-29T01:29:01.388Z,24.63
2022-11-29T01:31:36.284Z,23.57
2022-11-29T01:34:09.725Z,24.17
2022-11-29T01:36:42.841Z,23.90
2022-11-29T01:39:17.506Z,24.37
2022-11-29T01:41:50.672Z,23.03
2022-11-29T01:44:42.780Z,24.40
2022-11-29T01:47:17.007Z,24.30
2022-11-29T01:49:50.787Z,26.60
2022-11-29T01:52:25.536Z,24.97
2022-11-29T01:55:01.688Z,24.73
2022-11-29T01:57:35.192Z,23.23
2022-11-29T02:00:09.741Z,24.30
2022-11-29T02:02:47.499Z,24.60
2022-11-29T02:05:20.885Z,25.53
2022-11-29T02:07:55.221Z,24.43
2022-11-29T02:10:33.788Z,25.50
2022-11-29T02:13:10.499Z,22.60
2022-11-29T02:15:47.252Z,25.57
2022-11-29T02:18:23.052Z,24.87
2022-11-29T02:21:14.522Z,24.60
2022-11-29T02:24:01.138Z,26.47
2022-11-29T02:26:48.733Z,23.73
2022-11-29T02:29:39.543Z,24.77
2022-11-29T02:32:33.321Z,25.37
2022-11-29T02:35:16.332Z,25.23
2022-11-29T02:37:57.441Z,24.63
2022-11-29T02:40:40.809Z,26.20
2022-11-29T02:43:31.091Z,24.83
2022-11-29T02:46:08.622Z,25.47
2022-11-29T02:48:46.812Z,24.17
2022-11-29T02:51:23.638Z,26.33
2022-11-29T02:53:59.671Z,25.00
2022-11-29T02:56:35.559Z,23.83
2022-11-29T02:59:12.413Z,26.63
2022-11-29T03:01:49.627Z,25.10
2022-11-29T03:04:26.822Z,25.83
2022-11-29T03:07:04.576Z,24.90
2022-11-29T03:09:39.954Z,25.60
2022-11-29T03:12:19.613Z,25.13
2022-11-29T03:14:57.758Z,25.73
2022-11-29T03:17:39.053Z,24.57
2022-11-29T03:20:20.942Z,26.33
2022-11-29T03:23:09.395Z,24.67
2022-11-29T03:25:44.691Z,25.70
2022-11-29T03:28:20.564Z,25.13
2022-11-29T03:30:57.799Z,24.80
2022-11-29T03:33:34.118Z,25.43
2022-11-29T03:36:10.448Z,25.90
2022-11-29T03:38:45.395Z,24.73
2022-11-29T03:41:21.470Z,24.87
2022-11-29T03:43:56.411Z,25.97
2022-11-29T03:46:32.060Z,25.40
2022-11-29T03:49:08.730Z,26.50
2022-11-29T03:51:52.417Z,24.47
2022-11-29T03:54:29.080Z,24.97
2022-11-29T03:57:02.299Z,25.67
2022-11-29T03:59:44.530Z,24.70
2022-11-29T04:02:38.650Z,25.13
2022-11-29T04:05:35.544Z,26.43
2022-11-29T04:08:18.866Z,24.77
2022-11-29T04:11:10.841Z,26.13
2022-11-29T04:13:56.934Z,24.63
2022-11-29T04:16:44.657Z,25.57
2022-11-29T04:19:27.580Z,24.87
2022-11-29T04:22:22.345Z,25.03
2022-11-29T04:25:00.725Z,26.27
2022-11-29T04:27:54.441Z,25.53
2022-11-29T04:30:28.611Z,23.33
2022-11-29T04:33:16.177Z,25.60
2022-11-29T04:36:08.236Z,25.00
2022-11-29T04:39:01.606Z,24.93
2022-11-29T04:41:41.457Z,25.27
2022-11-29T04:44:23.873Z,25.93
2022-11-29T04:47:01.553Z,24.77
2022-11-29T04:49:41.725Z,26.13
2022-11-29T04:52:25.622Z,25.53
2022-11-29T04:55:01.331Z,26.23
2022-11-29T04:57:37.512Z,26.70
2022-11-29T05:00:14.282Z,26.27
2022-11-29T05:02:52.370Z,25.57
2022-11-29T05:05:31.144Z,26.10
2022-11-29T05:08:12.893Z,27.30
2022-11-29T05:10:51.378Z,26.27
2022-11-29T05:13:28.917Z,26.80
2022-11-29T05:16:08.074Z,26.00
2022-11-29T05:18:58.379Z,24.53
2022-11-29T05:21:38.196Z,25.97
2022-11-29T05:24:16.394Z,26.77
2022-11-29T05:26:52.314Z,27.60
2022-11-29T05:29:27.510Z,27.33
2022-11-29T05:32:10.679Z,25.57
2022-11-29T05:34:53.125Z,26.67
2022-11-29T05:37:32.213Z,24.57
2022-11-29T05:40:15.770Z,26.20
2022-11-29T05:42:56.993Z,25.57
2022-11-29T05:45:33.371Z,26.80
2022-11-29T05:48:10.293Z,26.23
2022-11-29T05:50:46.806Z,25.23
2022-11-29T05:53:22.712Z,26.87
2022-11-29T05:56:00.837Z,25.73
2022-11-29T05:58:44.787Z,26.90
2022-11-29T06:01:21.754Z,26.53
2022-11-29T06:04:01.413Z,25.13
2022-11-29T06:06:40.420Z,26.03
2022-11-29T06:09:16.225Z,27.10
2022-11-29T06:11:51.227Z,26.13
2022-11-29T06:14:34.025Z,26.47
2022-11-29T06:17:25.589Z,25.13
2022-11-29T06:20:19.214Z,26.47
2022-11-29T06:22:57.122Z,27.47
2022-11-29T06:25:36.155Z,26.03
2022-11-29T06:28:17.771Z,25.37
2022-11-29T06:30:55.723Z,26.50
2022-11-29T06:33:33.553Z,26.73
2022-11-29T06:36:14.641Z,27.17
2022-11-29T06:39:02.954Z,24.90
2022-11-29T06:41:36.272Z,27.20
2022-11-29T06:44:10.524Z,25.27
2022-11-29T06:46:46.824Z,25.50
2022-11-29T06:49:26.338Z,27.17
2022-11-29T06:52:10.406Z,28.23
2022-11-29T06:54:48.518Z,26.23
2022-11-29T06:57:23.369Z,25.53
2022-11-29T07:00:03.632Z,25.33
2022-11-29T07:02:45.634Z,25.47
2022-11-29T07:05:22.994Z,25.27
2022-11-29T07:07:59.007Z,25.73
2022-11-29T07:10:32.651Z,25.87
2022-11-29T07:13:05.645Z,25.67
2022-11-29T07:15:39.130Z,25.80
2022-11-29T07:18:15.687Z,24.93
2022-11-29T07:20:52.924Z,24.70
2022-11-29T07:23:29.879Z,24.67
2022-11-29T07:26:10.290Z,25.43
2022-11-29T07:28:49.808Z,24.23
2022-11-29T07:31:30.553Z,25.27
2022-11-29T07:34:10.129Z,25.00
2022-11-29T07:36:49.480Z,25.60
2022-11-29T07:39:26.060Z,25.47
2022-11-29T07:42:02.491Z,24.33
2022-11-29T07:44:37.227Z,26.10
2022-11-29T07:47:10.207Z,26.23
2022-11-29T07:49:42.907Z,25.87
2022-11-29T07:52:17.623Z,25.23
2022-11-29T07:54:56.151Z,26.80
2022-11-29T07:57:29.351Z,25.80
2022-11-29T08:00:02.430Z,24.60
2022-11-29T08:02:35.788Z,26.97
2022-11-29T08:05:09.858Z,25.47
2022-11-29T08:07:43.314Z,24.77
2022-11-29T08:10:19.304Z,25.50
2022-11-29T08:12:52.730Z,37.20
2022-11-29T08:15:27.511Z,30.10
2022-11-29T08:18:00.939Z,27.50
2022-11-29T08:20:33.774Z,29.77
2022-11-29T08:23:06.733Z,25.77
2022-11-29T08:25:41.650Z,25.17
2022-11-29T08:28:16.103Z,24.23
2022-11-29T08:30:51.597Z,24.93
2022-11-29T08:33:25.597Z,29.53
2022-11-29T08:36:07.882Z,24.77
2022-11-29T08:38:41.826Z,23.70
2022-11-29T08:41:17.435Z,23.93
2022-11-29T08:43:53.210Z,23.87
2022-11-29T08:46:47.002Z,33.07
2022-11-29T08:49:21.575Z,24.27
2022-11-29T08:52:16.149Z,30.63
2022-11-29T08:54:58.935Z,25.47
2022-11-29T08:57:40.489Z,23.73
2022-11-29T09:00:15.459Z,22.83
2022-11-29T09:02:50.870Z,24.73
2022-11-29T09:05:24.850Z,25.23
2022-11-29T09:07:59.557Z,26.97
2022-11-29T09:10:44.087Z,25.50
2022-11-29T09:13:20.230Z,23.67
2022-11-29T09:15:54.267Z,23.90
2022-11-29T09:18:30.375Z,27.03
2022-11-29T09:21:06.056Z,25.73
2022-11-29T09:23:39.577Z,23.93
2022-11-29T09:26:16.709Z,24.03
2022-11-29T09:28:51.121Z,24.03
2022-11-29T09:31:24.250Z,25.37
2022-11-29T09:33:57.258Z,33.63
2022-11-29T09:36:30.489Z,25.93
2022-11-29T09:39:04.152Z,24.80
2022-11-29T09:41:48.202Z,24.60
2022-11-29T09:44:25.270Z,25.33
2022-11-29T09:47:02.166Z,26.30
2022-11-29T09:49:51.920Z,24.33
2022-11-29T09:52:31.415Z,28.60
2022-11-29T09:55:10.156Z,24.90
2022-11-29T09:57:44.230Z,31.10
2022-11-29T10:00:20.060Z,25.70
2022-11-29T10:02:55.358Z,25.60
2022-11-29T10:05:31.025Z,25.60
2022-11-29T10:08:07.086Z,25.23
2022-11-29T10:10:43.664Z,26.17
2022-11-29T10:13:20.410Z,26.97
2022-11-29T10:15:55.655Z,27.57
2022-11-29T10:18:33.329Z,26.57
2022-11-29T10:21:07.755Z,25.20
2022-11-29T10:23:44.241Z,24.83
2022-11-29T10:26:18.133Z,28.90
2022-11-29T10:28:51.474Z,26.17
2022-11-29T10:31:29.656Z,26.27
2022-11-29T10:34:06.390Z,26.03
2022-11-29T10:36:41.623Z,30.10
2022-11-29T10:39:16.524Z,25.83
2022-11-29T10:41:51.283Z,28.47
2022-11-29T10:44:25.427Z,24.90
2022-11-29T10:47:01.242Z,25.67
2022-11-29T10:49:37.273Z,32.30
2022-11-29T10:52:19.739Z,25.30
2022-11-29T10:54:54.848Z,24.03
2022-11-29T10:57:27.567Z,26.90
2022-11-29T11:00:01.469Z,24.80
2022-11-29T11:02:36.096Z,29.47
2022-11-29T11:05:18.567Z,23.70
2022-11-29T11:07:57.380Z,24.30
2022-11-29T11:10:30.898Z,26.63
2022-11-29T11:13:07.432Z,27.30
2022-11-29T11:15:40.323Z,25.87
2022-11-29T11:18:21.478Z,23.90
2022-11-29T11:20:55.873Z,27.47
2022-11-29T11:23:30.939Z,26.47
2022-11-29T11:26:04.928Z,25.03
2022-11-29T11:28:41.037Z,27.73
2022-11-29T11:31:14.092Z,26.63
2022-11-29T11:33:48.800Z,26.23
2022-11-29T11:36:23.338Z,26.07
2022-11-29T11:38:57.093Z,26.13
2022-11-29T11:41:44.525Z,27.63
2022-11-29T11:47:24.320Z,26.60
2022-11-29T11:50:08.020Z,26.67
2022-11-29T11:52:49.898Z,30.30
2022-11-29T11:55:28.591Z,29.67
2022-11-29T11:58:09.295Z,28.13
2022-11-29T12:03:40.879Z,27.60
2022-11-29T12:06:28.517Z,26.53
2022-11-29T12:09:05.736Z,28.10
2022-11-29T12:11:41.909Z,26.83
2022-11-29T12:14:19.649Z,26.97
2022-11-29T12:16:55.535Z,27.60
2022-11-29T12:19:31.188Z,28.27
2022-11-29T12:22:08.081Z,27.33
2022-11-29T12:24:46.072Z,25.83
2022-11-29T12:27:18.981Z,30.80
2022-11-29T12:29:52.775Z,30.10
2022-11-29T12:32:42.851Z,28.37
2022-11-29T12:35:29.767Z,28.40
2022-11-29T12:38:08.695Z,36.37
2022-11-29T12:40:47.887Z,33.30
2022-11-29T12:43:26.227Z,29.93
2022-11-29T12:46:04.715Z,30.23
2022-11-29T12:48:42.575Z,31.13
2022-11-29T12:51:19.498Z,29.10
2022-11-29T12:54:00.092Z,29.60
2022-11-29T12:56:37.349Z,28.83
2022-11-29T12:59:18.530Z,27.73
2022-11-29T13:02:00.710Z,28.97
2022-11-29T13:04:37.450Z,28.50
2022-11-29T13:07:17.572Z,30.70
2022-11-29T13:10:03.825Z,29.57
2022-11-29T13:12:41.175Z,30.57
2022-11-29T13:15:16.717Z,29.83
2022-11-29T13:17:54.567Z,29.67
2022-11-29T13:20:33.423Z,29.93
2022-11-29T13:23:11.713Z,29.67
2022-11-29T13:25:47.679Z,30.70
2022-11-29T13:28:24.952Z,29.83
2022-11-29T13:31:07.019Z,29.57
2022-11-29T13:33:44.419Z,27.73
2022-11-29T13:36:26.681Z,29.67
2022-11-29T13:39:03.157Z,28.47
2022-11-29T13:41:37.819Z,31.27
2022-11-29T13:44:17.164Z,29.30
2022-11-29T13:46:53.964Z,30.13
2022-11-29T13:49:41.965Z,30.87
2022-11-29T13:52:31.612Z,30.23
2022-11-29T13:55:11.577Z,31.50
2022-11-29T13:58:15.061Z,30.80
2022-11-29T14:00:51.541Z,30.13
2022-11-29T14:03:32.497Z,30.60
2022-11-29T14:06:11.032Z,35.20
2022-11-29T14:09:19.026Z,29.43
2022-11-29T14:11:58.973Z,27.27
2022-11-29T14:14:34.446Z,29.90
2022-11-29T14:17:33.947Z,30.00
2022-11-29T14:20:27.859Z,28.30
2022-11-29T14:23:15.027Z,29.33
2022-11-29T14:26:21.504Z,30.80
2022-11-29T14:28:56.964Z,29.17
2022-11-29T14:31:50.032Z,30.13
2022-11-29T14:34:39.422Z,30.07
2022-11-29T14:37:33.965Z,28.60
2022-11-29T14:40:14.385Z,29.63
2022-11-29T14:42:50.164Z,29.53
2022-11-29T14:45:27.077Z,27.90
2022-11-29T14:48:03.080Z,28.77
2022-11-29T14:50:38.619Z,35.70
2022-11-29T14:53:29.384Z,34.70
2022-11-29T14:56:17.165Z,29.63
2022-11-29T14:58:51.613Z,29.43
2022-11-29T15:01:24.702Z,27.53
2022-11-29T15:03:57.911Z,29.23
2022-11-29T15:06:36.930Z,29.23
2022-11-29T15:09:17.755Z,28.53
2022-11-29T15:11:52.737Z,29.63
2022-11-29T15:14:34.824Z,28.53
2022-11-29T15:17:23.898Z,29.53
2022-11-29T15:20:15.213Z,27.97
2022-11-29T15:22:52.590Z,28.53
2022-11-29T15:25:26.275Z,27.70
2022-11-29T15:27:59.737Z,28.40
2022-11-29T15:30:34.725Z,27.50
2022-11-29T15:33:09.141Z,28.43
2022-11-29T15:35:48.708Z,26.67
2022-11-29T15:38:25.381Z,28.40
2022-11-29T15:41:10.121Z,27.67
2022-11-29T15:43:48.940Z,29.07
2022-11-29T15:46:22.969Z,30.30
2022-11-29T15:48:56.772Z,30.30
2022-11-29T15:51:31.529Z,27.50
2022-11-29T15:54:13.440Z,28.67
2022-11-29T15:56:48.388Z,30.80
2022-11-29T15:59:25.781Z,26.93
2022-11-29T16:01:59.780Z,30.83
2022-11-29T16:04:33.218Z,28.70
2022-11-29T16:07:07.258Z,34.40
2022-11-29T16:09:44.070Z,35.37
2022-11-29T16:12:17.866Z,31.40
2022-11-29T16:14:51.620Z,31.53
2022-11-29T16:17:26.277Z,31.90
2022-11-29T16:20:06.907Z,30.43
2022-11-29T16:22:39.724Z,31.33
2022-11-29T16:25:18.046Z,31.70
2022-11-29T16:27:54.542Z,31.23
2022-11-29T16:30:29.148Z,31.37
2022-11-29T16:33:05.185Z,31.53
2022-11-29T16:35:38.047Z,31.80
2022-11-29T16:38:15.438Z,32.13
2022-11-29T16:41:05.518Z,30.93
2022-11-29T16:43:50.856Z,31.33
2022-11-29T16:46:38.432Z,31.60
2022-11-29T16:49:30.363Z,33.07
2022-11-29T16:52:03.598Z,37.50
2022-11-29T16:54:36.862Z,31.73
2022-11-29T16:57:14.231Z,34.73
2022-11-29T16:59:47.452Z,32.27
2022-11-29T17:02:20.247Z,32.53
2022-11-29T17:04:53.141Z,32.23
2022-11-29T17:07:28.021Z,31.63
2022-11-29T17:10:01.012Z,31.70
2022-11-29T17:12:35.456Z,32.13
2022-11-29T17:15:12.285Z,32.83
2022-11-29T17:17:45.605Z,32.80
2022-11-29T17:20:18.594Z,31.70
2022-11-29T17:22:51.312Z,33.03
2022-11-29T17:25:24.122Z,33.13
2022-11-29T17:27:57.832Z,34.67
2022-11-29T17:30:34.523Z,31.67
2022-11-29T17:33:07.400Z,33.17
2022-11-29T17:35:40.080Z,35.30
2022-11-29T17:38:15.134Z,36.37
2022-11-29T17:40:48.125Z,37.53
2022-11-29T17:43:20.890Z,34.93
2022-11-29T17:45:54.884Z,36.13
2022-11-29T17:48:33.464Z,33.83
2022-11-29T17:51:17.460Z,33.37
2022-11-29T17:54:04.571Z,31.80
2022-11-29T17:56:37.977Z,33.00
2022-11-29T17:59:10.998Z,32.63
2022-11-29T18:01:47.002Z,32.07
2022-11-29T18:04:20.051Z,36.57
2022-11-29T18:06:53.653Z,32.53
2022-11-29T18:09:26.608Z,32.47
2022-11-29T18:11:59.525Z,32.40
2022-11-29T18:14:33.558Z,32.17
2022-11-29T18:17:07.756Z,31.90
2022-11-29T18:19:40.548Z,32.57
2022-11-29T18:22:13.434Z,31.60
2022-11-29T18:24:46.116Z,30.87
2022-11-29T18:27:19.264Z,32.30
2022-11-29T18:29:52.182Z,33.77
2022-11-29T18:32:27.415Z,32.43
2022-11-29T18:35:01.591Z,33.53
2022-11-29T18:38:12.790Z,34.07
2022-11-29T18:40:27.098Z,33.00
2022-11-29T18:43:00.008Z,31.20
2022-11-29T18:45:35.283Z,32.03
2022-11-29T18:48:10.012Z,31.93
2022-11-29T18:50:43.542Z,32.73
2022-11-29T18:53:16.530Z,32.40
2022-11-29T18:55:49.476Z,33.10
2022-11-29T18:58:22.469Z,32.97
2022-11-29T19:00:55.538Z,32.43
2022-11-29T19:03:29.857Z,32.70
2022-11-29T19:06:03.098Z,32.37
2022-11-29T19:08:37.433Z,31.80
2022-11-29T19:11:11.587Z,33.50
2022-11-29T19:13:44.932Z,34.33
2022-11-29T19:16:19.269Z,33.53
2022-11-29T19:18:54.407Z,33.13
2022-11-29T19:21:27.707Z,33.70
2022-11-29T19:24:01.340Z,32.50
2022-11-29T19:26:34.081Z,32.53
2022-11-29T19:29:06.994Z,32.73
2022-11-29T19:31:40.298Z,33.30
2022-11-29T19:34:14.656Z,42.17
2022-11-29T19:36:47.414Z,32.83
2022-11-29T19:39:20.116Z,33.33
2022-11-29T19:41:52.958Z,32.50
2022-11-29T19:44:29.917Z,33.00
2022-11-29T19:47:02.968Z,32.10
2022-11-29T19:49:43.467Z,31.97
2022-11-29T19:52:19.022Z,33.73
2022-11-29T19:54:53.905Z,30.87
2022-11-29T19:57:26.582Z,33.23
2022-11-29T19:59:59.272Z,33.70
2022-11-29T20:02:32.183Z,33.00
2022-11-29T20:05:07.161Z,33.27
2022-11-29T20:07:39.899Z,32.17
2022-11-29T20:10:13.196Z,34.40
2022-11-29T20:12:46.041Z,34.00
2022-11-29T20:15:18.809Z,32.43
2022-11-29T20:17:52.763Z,33.27
2022-11-29T20:20:26.839Z,33.20
2022-11-29T20:22:59.599Z,32.87
2022-11-29T20:25:33.633Z,33.10
2022-11-29T20:28:06.765Z,32.33
2022-11-29T20:30:39.633Z,33.17
2022-11-29T20:33:16.028Z,34.47
2022-11-29T20:35:51.631Z,33.90
2022-11-29T20:38:31.990Z,33.53
2022-11-29T20:41:12.858Z,35.03
2022-11-29T20:43:49.196Z,33.50
2022-11-29T20:46:22.329Z,33.00
2022-11-29T20:48:55.819Z,34.33
2022-11-29T20:51:34.308Z,34.60
2022-11-29T20:54:07.081Z,34.17
2022-11-29T20:56:40.002Z,33.33
2022-11-29T20:59:15.847Z,34.43
2022-11-29T21:01:48.925Z,34.90
2022-11-29T21:04:23.725Z,34.23
2022-11-29T21:06:57.990Z,34.43
2022-11-29T21:09:30.857Z,35.30
2022-11-29T21:12:03.883Z,34.07
2022-11-29T21:14:37.248Z,35.20
2022-11-29T21:17:10.458Z,37.60
2022-11-29T21:19:43.634Z,34.80
2022-11-29T21:22:22.770Z,34.43
2022-11-29T21:25:01.169Z,34.30
2022-11-29T21:27:34.500Z,36.57
2022-11-29T21:30:08.490Z,35.00
2022-11-29T21:32:41.523Z,34.20
2022-11-29T21:35:14.463Z,37.00
2022-11-29T21:37:48.566Z,35.80
2022-11-29T21:40:21.256Z,35.37
2022-11-29T21:42:54.073Z,33.60
2022-11-29T21:45:26.937Z,36.60
2022-11-29T21:48:00.742Z,35.03
2022-11-29T21:50:33.536Z,34.47
2022-11-29T21:53:07.803Z,35.27
2022-11-29T21:55:40.657Z,33.43
2022-11-29T21:58:13.397Z,33.70
2022-11-29T22:00:46.262Z,35.60
2022-11-29T22:03:18.967Z,36.17
2022-11-29T22:05:51.714Z,35.77
2022-11-29T22:08:25.899Z,36.53
2022-11-29T22:11:02.666Z,35.43
2022-11-29T22:13:35.681Z,34.60
2022-11-29T22:16:09.195Z,35.37
2022-11-29T22:18:42.028Z,37.20
2022-11-29T22:21:14.808Z,35.40
2022-11-29T22:23:48.891Z,36.77
2022-11-29T22:26:21.660Z,35.80
2022-11-29T22:28:54.428Z,35.90
2022-11-29T22:31:27.246Z,35.70
2022-11-29T22:34:00.445Z,38.10
2022-11-29T22:36:33.447Z,37.07
2022-11-29T22:39:08.751Z,35.13
2022-11-29T22:41:41.794Z,38.80
2022-11-29T22:44:14.407Z,38.30
2022-11-29T22:46:47.177Z,36.93
2022-11-29T22:49:20.017Z,37.13
2022-11-29T22:51:53.369Z,37.63
2022-11-29T22:54:27.384Z,36.17
2022-11-29T22:57:00.093Z,37.53
2022-11-29T22:59:32.976Z,37.97
2022-11-29T23:02:05.858Z,35.17
2022-11-29T23:04:38.751Z,36.27
2022-11-29T23:07:11.547Z,35.00
2022-11-29T23:09:45.682Z,37.17
2022-11-29T23:12:18.524Z,35.57
2022-11-29T23:14:56.122Z,34.67
2022-11-29T23:17:29.449Z,37.23
2022-11-29T23:20:02.331Z,36.00
2022-11-29T23:22:39.119Z,36.23
2022-11-29T23:25:13.165Z,36.33
2022-11-29T23:27:45.876Z,37.17
2022-11-29T23:30:18.635Z,37.37
2022-11-29T23:32:51.380Z,35.57
2022-11-29T23:35:24.233Z,36.10
2022-11-29T23:37:56.979Z,35.87
2022-11-29T23:40:31.028Z,35.27
2022-11-29T23:43:03.817Z,35.53
2022-11-29T23:45:36.829Z,37.00
2022-11-29T23:48:09.652Z,37.30
2022-11-29T23:50:43.090Z,37.00
2022-11-29T23:53:16.571Z,36.97
2022-11-29T23:55:57.966Z,35.10
2022-11-29T23:58:31.088Z,35.80
